createdAt,value
2017-07-05T00:01:55.549Z,21.10
2017-07-05T00:04:23.650Z,21.10
2017-07-05T00:06:51.806Z,21.00
2017-07-05T00:09:19.908Z,21.00
2017-07-05T00:11:48.058Z,21.00
2017-07-05T00:14:17.294Z,21.00
2017-07-05T00:16:46.157Z,21.00
2017-07-05T00:19:14.294Z,20.90
2017-07-05T00:21:42.388Z,21.00
2017-07-05T00:24:10.620Z,20.90
2017-07-05T00:26:38.712Z,20.90
2017-07-05T00:29:07.612Z,20.90
2017-07-05T00:31:35.714Z,20.90
2017-07-05T00:34:03.832Z,20.90
2017-07-05T00:36:31.940Z,20.90
2017-07-05T00:39:00.957Z,20.80
2017-07-05T00:41:30.297Z,20.80
2017-07-05T00:43:58.400Z,20.80
2017-07-05T00:46:26.497Z,20.80
2017-07-05T00:48:55.393Z,20.70
2017-07-05T00:51:23.521Z,20.70
2017-07-05T00:53:51.614Z,20.80
2017-07-05T00:56:19.873Z,20.70
2017-07-05T00:58:47.953Z,20.70
2017-07-05T01:01:16.081Z,20.70
2017-07-05T01:03:44.937Z,20.60
2017-07-05T01:06:13.029Z,20.60
2017-07-05T01:08:41.156Z,20.60
2017-07-05T01:11:09.391Z,20.60
2017-07-05T01:13:37.484Z,20.60
2017-07-05T01:16:06.376Z,20.50
2017-07-05T01:18:34.476Z,20.50
2017-07-05T01:21:02.620Z,20.50
2017-07-05T01:23:31.488Z,20.40
2017-07-05T01:25:59.597Z,20.40
2017-07-05T01:28:28.464Z,20.40
2017-07-05T01:30:56.593Z,20.40
2017-07-05T01:33:24.713Z,20.30
2017-07-05T01:35:52.814Z,20.30
2017-07-05T01:38:21.793Z,20.20
2017-07-05T01:40:49.918Z,20.20
2017-07-05T01:43:18.014Z,20.10
2017-07-05T01:45:46.150Z,20.20
2017-07-05T01:48:15.000Z,20.10
2017-07-05T01:50:43.109Z,20.10
2017-07-05T01:53:11.356Z,20.10
2017-07-05T01:55:39.449Z,20.10
2017-07-05T01:58:07.553Z,20.00
2017-07-05T02:00:35.792Z,20.00
2017-07-05T02:03:03.901Z,19.90
2017-07-05T02:05:33.231Z,19.90
2017-07-05T02:08:01.372Z,19.90
2017-07-05T02:10:29.465Z,19.80
2017-07-05T02:12:58.326Z,19.80
2017-07-05T02:15:26.549Z,19.80
2017-07-05T02:17:55.416Z,19.80
2017-07-05T02:20:23.549Z,19.80
2017-07-05T02:22:51.643Z,19.80
2017-07-05T02:25:19.733Z,19.80
2017-07-05T02:27:47.954Z,19.70
2017-07-05T02:30:16.810Z,19.60
2017-07-05T02:32:44.964Z,19.60
2017-07-05T02:35:13.056Z,19.60
2017-07-05T02:37:41.156Z,19.60
2017-07-05T02:40:09.288Z,19.60
2017-07-05T02:42:37.383Z,19.60
2017-07-05T02:45:05.484Z,19.50
2017-07-05T02:47:33.601Z,19.50
2017-07-05T02:50:01.833Z,19.50
2017-07-05T02:52:29.925Z,19.40
2017-07-05T02:54:58.017Z,19.40
2017-07-05T02:57:26.909Z,19.30
2017-07-05T02:59:55.006Z,19.30
2017-07-05T03:02:23.096Z,19.30
2017-07-05T03:04:51.357Z,19.30
2017-07-05T03:07:19.452Z,19.30
2017-07-05T03:09:47.577Z,19.30
2017-07-05T03:12:15.672Z,19.30
2017-07-05T03:14:44.538Z,19.20
2017-07-05T03:17:12.722Z,19.20
2017-07-05T03:19:40.860Z,19.20
2017-07-05T03:22:08.946Z,19.20
2017-07-05T03:24:37.160Z,19.20
2017-07-05T03:27:05.249Z,19.10
2017-07-05T03:29:34.148Z,19.10
2017-07-05T03:32:03.005Z,19.10
2017-07-05T03:34:31.102Z,19.00
2017-07-05T03:36:59.209Z,19.10
2017-07-05T03:39:28.079Z,19.00
2017-07-05T03:41:56.330Z,19.00
2017-07-05T03:44:24.428Z,19.00
2017-07-05T03:46:52.525Z,19.00
2017-07-05T03:49:21.418Z,19.00
2017-07-05T03:51:50.269Z,19.00
2017-07-05T03:54:18.405Z,19.00
2017-07-05T03:56:46.498Z,19.00
2017-07-05T03:59:14.598Z,19.00
2017-07-05T04:01:42.846Z,19.00
2017-07-05T04:04:10.934Z,19.00
2017-07-05T04:06:39.093Z,19.00
2017-07-05T04:09:07.193Z,19.00
2017-07-05T04:11:35.285Z,19.00
2017-07-05T04:14:03.408Z,19.00
2017-07-05T04:16:32.269Z,19.10
2017-07-05T04:19:00.525Z,19.10
2017-07-05T04:21:28.627Z,19.10
2017-07-05T04:23:56.774Z,19.10
2017-07-05T04:26:24.876Z,19.20
2017-07-05T04:28:52.978Z,19.30
2017-07-05T04:31:21.124Z,19.30
2017-07-05T04:33:49.232Z,19.40
2017-07-05T04:36:17.332Z,19.40
2017-07-05T04:38:45.572Z,19.40
2017-07-05T04:41:13.662Z,19.50
2017-07-05T04:43:41.925Z,19.50
2017-07-05T04:46:10.026Z,19.60
2017-07-05T04:48:38.890Z,19.60
2017-07-05T04:51:07.009Z,19.60
2017-07-05T04:53:35.868Z,19.60
2017-07-05T04:56:04.015Z,19.60
2017-07-05T04:58:32.115Z,19.70
2017-07-05T05:01:00.220Z,19.80
2017-07-05T05:03:28.385Z,19.90
2017-07-05T05:05:56.509Z,19.90
2017-07-05T05:08:24.613Z,20.00
2017-07-05T05:10:52.852Z,20.10
2017-07-05T05:13:21.725Z,20.20
2017-07-05T05:15:49.854Z,20.20
2017-07-05T05:18:17.980Z,20.20
2017-07-05T05:20:46.879Z,20.30
2017-07-05T05:23:15.001Z,20.30
2017-07-05T05:25:43.107Z,20.40
2017-07-05T05:28:11.352Z,20.50
2017-07-05T05:30:39.484Z,20.60
2017-07-05T05:33:08.384Z,20.70
2017-07-05T05:35:36.452Z,20.70
2017-07-05T05:38:04.589Z,20.80
2017-07-05T05:40:32.685Z,20.90
2017-07-05T05:43:00.920Z,20.80
2017-07-05T05:45:30.274Z,20.90
2017-07-05T05:47:59.151Z,20.90
2017-07-05T05:50:27.305Z,20.90
2017-07-05T05:52:55.418Z,21.00
2017-07-05T05:55:23.542Z,21.00
2017-07-05T05:57:51.651Z,21.10
2017-07-05T06:00:19.897Z,21.20
2017-07-05T06:02:48.038Z,21.20
2017-07-05T06:05:16.157Z,21.20
2017-07-05T06:07:44.302Z,21.30
2017-07-05T06:10:12.412Z,21.30
2017-07-05T06:12:40.520Z,21.40
2017-07-05T06:15:08.661Z,21.50
2017-07-05T06:17:36.772Z,21.60
2017-07-05T06:20:04.877Z,21.80
2017-07-05T06:22:33.148Z,21.80
2017-07-05T06:25:01.245Z,21.80
2017-07-05T06:27:29.362Z,21.80
2017-07-05T06:29:57.483Z,21.90
2017-07-05T06:32:25.595Z,22.00
2017-07-05T06:34:53.832Z,22.00
2017-07-05T06:37:21.932Z,22.10
2017-07-05T06:39:50.033Z,22.20
2017-07-05T06:42:18.918Z,22.30
2017-07-05T06:44:47.813Z,22.30
2017-07-05T06:47:15.927Z,22.30
2017-07-05T06:49:44.048Z,22.40
2017-07-05T06:52:12.285Z,22.50
2017-07-05T06:54:40.413Z,22.50
2017-07-05T06:57:08.550Z,22.70
2017-07-05T06:59:36.653Z,22.80
2017-07-05T07:02:04.794Z,22.90
2017-07-05T07:04:32.894Z,23.00
2017-07-05T07:07:00.983Z,23.10
2017-07-05T07:09:29.233Z,23.30
2017-07-05T07:11:57.332Z,23.30
2017-07-05T07:14:25.464Z,23.40
2017-07-05T07:16:53.565Z,23.50
2017-07-05T07:19:21.735Z,23.60
2017-07-05T07:21:49.824Z,23.70
2017-07-05T07:24:17.925Z,23.80
2017-07-05T07:26:46.046Z,24.00
2017-07-05T07:29:14.134Z,24.10
2017-07-05T07:31:42.273Z,24.20
2017-07-05T07:34:10.372Z,24.20
2017-07-05T07:36:38.474Z,24.30
2017-07-05T07:39:06.704Z,24.40
2017-07-05T07:41:34.791Z,24.50
2017-07-05T07:44:03.671Z,24.80
2017-07-05T07:46:31.762Z,24.70
2017-07-05T07:49:00.636Z,24.80
2017-07-05T07:51:28.754Z,24.80
2017-07-05T07:53:56.853Z,24.90
2017-07-05T07:56:25.096Z,24.90
2017-07-05T07:58:53.197Z,24.90
2017-07-05T08:01:21.304Z,24.90
2017-07-05T08:03:50.633Z,24.90
2017-07-05T08:06:18.733Z,24.90
2017-07-05T08:08:47.609Z,25.00
2017-07-05T08:11:15.843Z,25.00
2017-07-05T08:13:43.931Z,25.10
2017-07-05T08:16:12.056Z,25.30
2017-07-05T08:18:40.151Z,25.30
2017-07-05T08:21:08.246Z,25.40
2017-07-05T08:23:36.381Z,25.40
2017-07-05T08:26:04.472Z,25.50
2017-07-05T08:28:33.500Z,25.70
2017-07-05T08:31:01.582Z,25.60
2017-07-05T08:33:29.695Z,25.80
2017-07-05T08:35:57.825Z,25.80
2017-07-05T08:38:25.941Z,25.80
2017-07-05T08:40:54.024Z,25.80
2017-07-05T08:43:22.161Z,26.00
2017-07-05T08:45:50.253Z,26.00
2017-07-05T08:48:18.360Z,26.00
2017-07-05T08:50:46.587Z,26.20
2017-07-05T08:53:14.765Z,26.20
2017-07-05T08:55:42.892Z,26.20
2017-07-05T08:58:10.991Z,26.30
2017-07-05T09:00:39.133Z,26.40
2017-07-05T09:03:07.362Z,26.50
2017-07-05T09:05:35.458Z,26.50
2017-07-05T09:08:03.585Z,26.50
2017-07-05T09:10:31.697Z,26.50
2017-07-05T09:12:59.797Z,26.50
2017-07-05T09:15:27.925Z,26.70
2017-07-05T09:17:56.026Z,26.80
2017-07-05T09:20:24.121Z,26.90
2017-07-05T09:22:52.352Z,27.10
2017-07-05T09:25:20.445Z,27.30
2017-07-05T09:27:49.346Z,27.40
2017-07-05T09:30:18.198Z,27.50
2017-07-05T09:32:46.294Z,27.50
2017-07-05T09:35:14.418Z,27.70
2017-07-05T09:37:42.514Z,27.70
2017-07-05T09:40:10.744Z,27.80
2017-07-05T09:42:39.606Z,28.00
2017-07-05T09:45:07.744Z,28.00
2017-07-05T09:47:35.837Z,28.10
2017-07-05T09:50:03.913Z,28.20
2017-07-05T09:52:32.029Z,28.30
2017-07-05T09:55:00.277Z,28.40
2017-07-05T09:57:28.360Z,28.50
2017-07-05T09:59:57.598Z,28.90
2017-07-05T10:02:25.716Z,28.90
2017-07-05T10:04:53.812Z,29.10
2017-07-05T10:07:21.936Z,29.10
2017-07-05T10:09:50.797Z,28.90
2017-07-05T10:12:18.886Z,28.90
